Time;durP1;ratioP1;P1;durP2;ratioP2;P2;SDS_P1;SDS_P2;PMS_P1;PMS_P2;Temp;Humidity;BMP_temperature;BMP_pressure;BME280_temperature;BME280_humidity;BME280_pressure;Samples;Min_cycle;Max_cycle;Signal;HPM_P1;HPM_P2
2023/10/16 00:00:42;;;;;;;1.80;0.90;;;;;;;;;;5002019;28;20455;-68
2023/10/16 00:03:09;;;;;;;2.17;0.50;;;;;;;;;;4997549;28;20446;-68
2023/10/16 00:05:44;;;;;;;1.50;0.70;;;;;;;;;;4998595;28;20472;-69
2023/10/16 00:08:12;;;;;;;1.60;0.70;;;;;;;;;;5003213;28;20499;-69
2023/10/16 00:10:40;;;;;;;1.50;0.77;;;;;;;;;;4998922;28;20489;-71
2023/10/16 00:13:11;;;;;;;1.40;0.60;;;;;;;;;;4994994;28;20458;-69
2023/10/16 00:15:44;;;;;;;1.53;0.70;;;;;;;;;;5004903;28;20472;-68
2023/10/16 00:18:17;;;;;;;1.30;0.50;;;;;;;;;;5004671;28;20468;-68
2023/10/16 00:20:44;;;;;;;1.70;1.00;;;;;;;;;;5005132;28;20476;-68
2023/10/16 00:23:12;;;;;;;1.50;0.90;;;;;;;;;;4991960;28;20445;-69
2023/10/16 00:25:41;;;;;;;1.63;0.77;;;;;;;;;;4992572;28;20482;-69
2023/10/16 00:28:08;;;;;;;3.50;0.80;;;;;;;;;;5000314;28;20962;-69
2023/10/16 00:30:35;;;;;;;1.60;0.70;;;;;;;;;;4997081;28;20441;-69
2023/10/16 00:33:04;;;;;;;1.37;0.50;;;;;;;;;;4990235;28;20482;-69
2023/10/16 00:35:32;;;;;;;2.90;0.80;;;;;;;;;;4989928;28;20483;-69
2023/10/16 00:37:59;;;;;;;2.03;0.67;;;;;;;;;;4994919;28;20491;-69
2023/10/16 00:40:32;;;;;;;1.30;0.50;;;;;;;;;;4984296;28;20468;-68
2023/10/16 00:43:10;;;;;;;1.47;0.70;;;;;;;;;;4986613;28;20481;-68
2023/10/16 00:45:45;;;;;;;1.73;0.83;;;;;;;;;;4985165;28;20528;-69
2023/10/16 00:48:12;;;;;;;1.67;1.00;;;;;;;;;;5004865;28;20444;-68
2023/10/16 00:50:40;;;;;;;1.77;0.80;;;;;;;;;;4996461;28;20441;-69
2023/10/16 00:53:07;;;;;;;1.40;0.60;;;;;;;;;;4997286;28;20484;-68
2023/10/16 00:55:35;;;;;;;2.47;0.70;;;;;;;;;;4989174;28;20588;-68
2023/10/16 00:58:06;;;;;;;1.40;0.53;;;;;;;;;;5000109;28;20441;-70
2023/10/16 01:00:37;;;;;;;1.40;0.60;;;;;;;;;;4995764;28;20468;-69
2023/10/16 01:03:05;;;;;;;1.70;0.60;;;;;;;;;;5000745;28;20500;-69
2023/10/16 01:05:39;;;;;;;3.50;0.70;;;;;;;;;;4987564;28;20857;-69
2023/10/16 01:08:07;;;;;;;1.80;0.70;;;;;;;;;;4993284;28;20445;-69
2023/10/16 01:10:36;;;;;;;1.97;0.87;;;;;;;;;;4984004;28;20905;-69
2023/10/16 01:13:09;;;;;;;1.33;0.53;;;;;;;;;;4985141;28;21011;-68
2023/10/16 01:15:43;;;;;;;1.50;0.50;;;;;;;;;;4982413;28;20474;-68
2023/10/16 01:18:13;;;;;;;5.63;0.77;;;;;;;;;;4985052;28;20481;-68
2023/10/16 01:20:46;;;;;;;1.40;0.43;;;;;;;;;;4989338;28;20442;-68
2023/10/16 01:23:15;;;;;;;3.30;1.37;;;;;;;;;;5000202;28;20514;-69
2023/10/16 01:25:44;;;;;;;2.53;1.37;;;;;;;;;;4994967;28;20477;-69
2023/10/16 01:28:12;;;;;;;1.80;1.20;;;;;;;;;;4996796;28;21010;-68
2023/10/16 01:30:41;;;;;;;1.83;0.80;;;;;;;;;;4989135;28;20448;-68
2023/10/16 01:33:08;;;;;;;1.30;0.50;;;;;;;;;;4985791;28;20481;-69
2023/10/16 01:35:36;;;;;;;1.93;1.43;;;;;;;;;;4989517;28;20848;-68
2023/10/16 01:38:08;;;;;;;2.07;1.20;;;;;;;;;;4986673;28;20446;-69
2023/10/16 01:40:37;;;;;;;1.60;0.73;;;;;;;;;;4990413;28;20541;-68
2023/10/16 01:43:05;;;;;;;1.60;0.67;;;;;;;;;;4994732;28;20445;-68
2023/10/16 01:45:33;;;;;;;1.60;0.70;;;;;;;;;;4995818;28;20579;-68
2023/10/16 01:48:04;;;;;;;1.57;0.57;;;;;;;;;;5002025;28;20458;-69
2023/10/16 01:50:32;;;;;;;1.50;0.53;;;;;;;;;;4998658;28;20454;-69
2023/10/16 01:53:03;;;;;;;1.57;0.77;;;;;;;;;;4992806;28;20841;-69
2023/10/16 01:55:30;;;;;;;1.40;0.70;;;;;;;;;;4971714;28;20513;-68
2023/10/16 01:57:59;;;;;;;2.80;1.17;;;;;;;;;;4993632;28;20463;-68
2023/10/16 02:00:26;;;;;;;1.30;0.50;;;;;;;;;;4993464;28;20441;-68
2023/10/16 02:02:54;;;;;;;1.80;0.80;;;;;;;;;;4995773;28;20473;-68
2023/10/16 02:05:21;;;;;;;1.50;0.70;;;;;;;;;;4996140;28;20615;-68
2023/10/16 02:07:50;;;;;;;1.40;0.57;;;;;;;;;;4980685;28;20460;-68
2023/10/16 02:10:20;;;;;;;1.70;0.60;;;;;;;;;;4978745;28;20544;-69
2023/10/16 02:12:48;;;;;;;1.80;0.67;;;;;;;;;;4994349;28;20494;-68
2023/10/16 02:15:21;;;;;;;3.27;1.17;;;;;;;;;;4996014;28;20479;-68
2023/10/16 02:17:49;;;;;;;2.57;0.87;;;;;;;;;;4991401;28;20485;-69
2023/10/16 02:20:17;;;;;;;1.63;0.80;;;;;;;;;;4998317;28;20855;-69
2023/10/16 02:22:45;;;;;;;1.80;0.63;;;;;;;;;;5000498;28;20454;-69
2023/10/16 02:25:12;;;;;;;1.30;0.50;;;;;;;;;;4984327;28;21002;-69
2023/10/16 02:27:41;;;;;;;1.47;0.70;;;;;;;;;;4993561;28;20457;-68
2023/10/16 02:30:28;;;;;;;2.00;0.97;;;;;;;;;;4987892;28;20457;-68
2023/10/16 02:32:59;;;;;;;1.90;0.70;;;;;;;;;;4998629;28;20465;-69
2023/10/16 02:35:28;;;;;;;1.60;0.80;;;;;;;;;;4988842;28;20472;-69
2023/10/16 02:37:57;;;;;;;1.60;0.50;;;;;;;;;;4991663;28;20465;-68
2023/10/16 02:40:25;;;;;;;1.40;0.40;;;;;;;;;;4990522;28;20938;-68
2023/10/16 02:42:55;;;;;;;1.60;0.70;;;;;;;;;;4985450;28;20457;-69
2023/10/16 02:45:25;;;;;;;1.97;1.10;;;;;;;;;;4985556;28;20495;-68
2023/10/16 02:47:52;;;;;;;1.30;0.40;;;;;;;;;;4991187;28;20461;-68
2023/10/16 02:50:21;;;;;;;1.93;0.77;;;;;;;;;;4999266;28;20480;-68
2023/10/16 02:52:48;;;;;;;1.60;0.67;;;;;;;;;;4995960;28;20469;-68
2023/10/16 02:55:16;;;;;;;1.57;0.67;;;;;;;;;;4987119;28;20820;-68
2023/10/16 02:57:43;;;;;;;1.83;0.80;;;;;;;;;;4984654;28;20821;-69
2023/10/16 03:00:17;;;;;;;1.30;0.43;;;;;;;;;;4987461;28;20456;-68
2023/10/16 03:02:47;;;;;;;3.23;0.77;;;;;;;;;;4987654;28;20496;-68
2023/10/16 03:05:21;;;;;;;1.30;0.40;;;;;;;;;;4996920;28;20547;-69
2023/10/16 03:07:50;;;;;;;1.50;0.53;;;;;;;;;;4997276;28;20965;-68
2023/10/16 03:10:18;;;;;;;1.77;0.67;;;;;;;;;;4995432;28;20448;-68
2023/10/16 03:12:45;;;;;;;1.80;1.27;;;;;;;;;;4999285;28;20482;-69
2023/10/16 03:15:16;;;;;;;3.17;0.90;;;;;;;;;;5000110;28;20526;-68
2023/10/16 03:17:44;;;;;;;1.40;0.50;;;;;;;;;;4987194;28;20472;-68
2023/10/16 03:20:19;;;;;;;1.33;0.47;;;;;;;;;;4992726;28;20458;-68
2023/10/16 03:22:47;;;;;;;1.60;0.87;;;;;;;;;;4992546;28;20531;-68
2023/10/16 03:25:27;;;;;;;1.60;0.70;;;;;;;;;;4995181;28;20531;-68
2023/10/16 03:27:55;;;;;;;1.97;0.67;;;;;;;;;;4992399;28;20908;-69
2023/10/16 03:30:25;;;;;;;1.80;0.70;;;;;;;;;;4994078;28;20499;-68
2023/10/16 03:32:53;;;;;;;2.73;0.77;;;;;;;;;;4989152;28;20476;-68
2023/10/16 03:35:26;;;;;;;1.73;0.70;;;;;;;;;;4993840;28;20473;-68
2023/10/16 03:37:55;;;;;;;2.87;0.70;;;;;;;;;;4993311;28;20449;-68
2023/10/16 03:40:24;;;;;;;3.73;1.57;;;;;;;;;;4986828;28;20452;-69
2023/10/16 03:42:51;;;;;;;1.33;0.50;;;;;;;;;;4991511;28;20547;-68
2023/10/16 03:45:20;;;;;;;1.60;0.80;;;;;;;;;;4990662;28;20477;-69
2023/10/16 03:47:51;;;;;;;1.40;0.60;;;;;;;;;;4986371;28;20453;-68
2023/10/16 03:50:23;;;;;;;3.00;0.70;;;;;;;;;;4989401;28;20457;-68
2023/10/16 03:52:50;;;;;;;1.70;0.80;;;;;;;;;;4994626;28;21011;-69
2023/10/16 03:55:24;;;;;;;1.70;0.70;;;;;;;;;;4989483;28;20477;-69
2023/10/16 03:57:53;;;;;;;4.37;0.77;;;;;;;;;;4986888;28;20605;-68
2023/10/16 04:00:25;;;;;;;2.80;1.03;;;;;;;;;;4984704;28;20458;-68
2023/10/16 04:02:53;;;;;;;1.50;0.63;;;;;;;;;;4983915;28;20746;-68
2023/10/16 04:05:30;;;;;;;1.40;0.60;;;;;;;;;;4983683;28;20468;-68
2023/10/16 04:07:57;;;;;;;5.83;0.97;;;;;;;;;;4990030;28;20532;-68
2023/10/16 04:10:28;;;;;;;3.07;0.67;;;;;;;;;;4975320;28;20474;-68
2023/10/16 04:12:57;;;;;;;1.40;0.60;;;;;;;;;;4993600;28;20824;-69
2023/10/16 04:15:47;;;;;;;1.40;0.50;;;;;;;;;;4991892;28;20473;-68
2023/10/16 04:18:27;;;;;;;1.70;0.90;;;;;;;;;;4994836;28;20444;-68
2023/10/16 04:21:08;;;;;;;1.70;0.77;;;;;;;;;;5000160;28;20531;-69
2023/10/16 04:23:37;;;;;;;2.30;2.10;;;;;;;;;;4983789;28;20438;-68
2023/10/16 04:31:44;;;;;;;1.73;0.63;;;;;;;;;;4990878;28;20982;-68
2023/10/16 04:34:24;;;;;;;1.50;0.60;;;;;;;;;;4987035;28;20480;-68
2023/10/16 04:36:52;;;;;;;1.50;1.10;;;;;;;;;;4983630;28;20475;-68
2023/10/16 04:45:00;;;;;;;4.33;0.60;;;;;;;;;;4979996;28;20811;-68
2023/10/16 04:47:28;;;;;;;2.80;0.93;;;;;;;;;;4988112;28;20448;-68
2023/10/16 04:50:07;;;;;;;1.50;0.63;;;;;;;;;;4994648;28;20886;-68
2023/10/16 04:55:52;;;;;;;2.90;1.10;;;;;;;;;;4989733;28;20540;-68
2023/10/16 05:01:22;;;;;;;1.67;0.80;;;;;;;;;;4989918;28;20425;-68
2023/10/16 05:04:24;;;;;;;2.57;1.30;;;;;;;;;;4988459;28;20468;-67
2023/10/16 05:06:52;;;;;;;1.50;0.93;;;;;;;;;;4991197;28;20426;-68
2023/10/16 06:15:38;;;;;;;2.53;1.07;;;;;;;;;;4987770;28;20452;-65
2023/10/16 06:18:06;;;;;;;1.93;1.13;;;;;;;;;;4992770;28;20456;-66
2023/10/16 06:20:37;;;;;;;1.47;0.67;;;;;;;;;;4984472;28;20511;-66
2023/10/16 06:23:10;;;;;;;1.67;0.77;;;;;;;;;;4992490;28;20441;-67
2023/10/16 06:25:37;;;;;;;1.77;1.10;;;;;;;;;;4995705;28;20579;-67
2023/10/16 06:28:08;;;;;;;2.87;1.10;;;;;;;;;;4994769;28;20471;-67
2023/10/16 06:30:38;;;;;;;2.00;0.80;;;;;;;;;;4992471;28;20473;-66
2023/10/16 06:33:05;;;;;;;2.93;1.17;;;;;;;;;;4995418;28;20488;-67
2023/10/16 06:35:32;;;;;;;2.60;1.00;;;;;;;;;;4994439;28;20473;-66
2023/10/16 06:38:00;;;;;;;4.70;1.77;;;;;;;;;;4993835;28;20515;-67
2023/10/16 06:40:32;;;;;;;2.40;2.00;;;;;;;;;;4990046;28;20543;-67
2023/10/16 06:43:10;;;;;;;8.43;4.07;;;;;;;;;;4985482;28;20463;-65
2023/10/16 06:45:54;;;;;;;3.27;1.40;;;;;;;;;;4989404;28;20955;-66
2023/10/16 06:48:21;;;;;;;3.50;2.00;;;;;;;;;;4991611;28;20505;-68
2023/10/16 06:50:53;;;;;;;3.17;1.30;;;;;;;;;;4988712;28;20540;-66
2023/10/16 06:53:22;;;;;;;26.13;3.87;;;;;;;;;;4989468;28;20480;-65
2023/10/16 06:55:51;;;;;;;6.00;1.50;;;;;;;;;;5083895;23;20493;-66
2023/10/16 06:58:21;;;;;;;2.47;1.80;;;;;;;;;;5052695;28;20865;-66
2023/10/16 07:00:49;;;;;;;3.03;1.73;;;;;;;;;;5053191;28;20811;-67
2023/10/16 07:03:16;;;;;;;3.03;1.37;;;;;;;;;;5058406;28;20446;-67
2023/10/16 07:05:43;;;;;;;2.47;1.40;;;;;;;;;;5057405;28;20469;-67
2023/10/16 07:08:10;;;;;;;2.47;1.63;;;;;;;;;;5059056;28;20439;-67
2023/10/16 07:10:40;;;;;;;2.23;1.20;;;;;;;;;;5052097;28;20446;-67
2023/10/16 07:13:09;;;;;;;2.30;1.43;;;;;;;;;;5046579;28;20932;-67
2023/10/16 07:15:37;;;;;;;2.47;1.70;;;;;;;;;;5059807;28;21007;-69
2023/10/16 07:18:05;;;;;;;2.23;1.60;;;;;;;;;;5045286;28;20450;-68
2023/10/16 07:20:37;;;;;;;2.03;1.20;;;;;;;;;;5061805;28;20465;-67
2023/10/16 07:23:10;;;;;;;3.20;1.47;;;;;;;;;;5057051;28;20450;-68
2023/10/16 07:25:54;;;;;;;1.87;1.27;;;;;;;;;;5055145;28;20481;-67
2023/10/16 07:28:23;;;;;;;6.90;2.10;;;;;;;;;;5047026;28;20438;-68
2023/10/16 07:30:50;;;;;;;3.33;2.13;;;;;;;;;;5057404;28;20458;-66
2023/10/16 07:33:20;;;;;;;2.90;1.90;;;;;;;;;;5051524;28;20478;-67
2023/10/16 07:35:48;;;;;;;5.57;2.10;;;;;;;;;;5060620;28;20842;-68
2023/10/16 07:38:19;;;;;;;6.63;1.40;;;;;;;;;;5053960;28;20442;-68
2023/10/16 07:40:46;;;;;;;2.33;1.53;;;;;;;;;;5055477;28;20446;-71
2023/10/16 07:43:13;;;;;;;8.70;2.47;;;;;;;;;;5058021;28;20449;-68
2023/10/16 07:45:44;;;;;;;1.93;1.10;;;;;;;;;;5047526;28;20555;-67
2023/10/16 07:48:20;;;;;;;3.50;1.73;;;;;;;;;;5054246;28;20966;-68
2023/10/16 07:50:48;;;;;;;2.37;1.40;;;;;;;;;;5054132;28;20426;-69
2023/10/16 07:53:18;;;;;;;4.10;1.40;;;;;;;;;;5063458;28;20484;-71
2023/10/16 07:55:50;;;;;;;6.63;3.57;;;;;;;;;;5070955;28;20494;-70
2023/10/16 07:58:23;;;;;;;5.07;1.97;;;;;;;;;;5076138;28;20422;-70
2023/10/16 08:03:42;;;;;;;7.27;3.17;;;;;;;;;;5050497;28;20910;-68
2023/10/16 08:06:16;;;;;;;3.23;2.30;;;;;;;;;;5050615;28;20477;-68
2023/10/16 08:08:48;;;;;;;5.43;2.27;;;;;;;;;;5058402;28;20453;-70
2023/10/16 08:11:18;;;;;;;3.60;1.93;;;;;;;;;;5058019;28;20453;-72
2023/10/16 08:13:47;;;;;;;3.70;1.50;;;;;;;;;;5058714;28;20478;-72
2023/10/16 08:16:18;;;;;;;2.53;1.73;;;;;;;;;;5063220;28;20450;-70
2023/10/16 08:18:48;;;;;;;4.37;1.60;;;;;;;;;;5054574;28;20431;-70
2023/10/16 08:21:24;;;;;;;3.70;2.20;;;;;;;;;;5070947;28;20445;-69
2023/10/16 08:23:51;;;;;;;5.10;2.33;;;;;;;;;;5050046;28;20975;-66
2023/10/16 08:26:28;;;;;;;5.20;2.30;;;;;;;;;;5071195;28;20453;-68
2023/10/16 08:28:55;;;;;;;3.60;2.10;;;;;;;;;;5059441;28;20459;-68
2023/10/16 08:31:24;;;;;;;3.33;2.00;;;;;;;;;;5066209;28;20483;-68
2023/10/16 08:33:51;;;;;;;2.70;1.73;;;;;;;;;;5054153;28;20481;-68
2023/10/16 08:36:21;;;;;;;2.40;1.83;;;;;;;;;;5059023;28;20450;-67
2023/10/16 08:38:54;;;;;;;2.73;1.73;;;;;;;;;;5058805;28;20476;-68
2023/10/16 08:41:30;;;;;;;4.77;2.67;;;;;;;;;;5056565;28;20438;-68
2023/10/16 08:44:04;;;;;;;3.27;1.70;;;;;;;;;;5045529;28;20549;-67
2023/10/16 08:46:34;;;;;;;3.17;1.83;;;;;;;;;;5067445;28;20544;-67
2023/10/16 08:49:02;;;;;;;5.20;3.60;;;;;;;;;;5053944;28;20497;-68
2023/10/16 08:51:30;;;;;;;4.47;2.30;;;;;;;;;;5062531;28;20823;-68
2023/10/16 08:54:02;;;;;;;5.33;2.53;;;;;;;;;;5062308;28;20486;-67
2023/10/16 08:56:30;;;;;;;3.60;1.87;;;;;;;;;;5064992;28;20512;-67
2023/10/16 08:58:57;;;;;;;6.47;2.53;;;;;;;;;;5060817;28;20580;-67
2023/10/16 09:01:28;;;;;;;5.10;2.60;;;;;;;;;;5059967;28;20956;-68
2023/10/16 09:04:01;;;;;;;2.50;1.57;;;;;;;;;;5058201;28;20914;-67
2023/10/16 09:06:29;;;;;;;2.53;1.50;;;;;;;;;;5072774;28;20445;-67
2023/10/16 09:08:58;;;;;;;3.93;2.07;;;;;;;;;;5055732;28;20477;-68
2023/10/16 09:11:26;;;;;;;2.87;1.20;;;;;;;;;;5064893;28;20453;-68
2023/10/16 09:13:54;;;;;;;4.20;2.00;;;;;;;;;;5039682;28;20486;-68
2023/10/16 09:16:23;;;;;;;2.47;1.00;;;;;;;;;;5059867;28;20450;-68
2023/10/16 09:18:52;;;;;;;3.27;1.80;;;;;;;;;;5055302;28;20449;-68
2023/10/16 09:21:24;;;;;;;10.10;1.90;;;;;;;;;;5060236;28;20486;-68
2023/10/16 09:23:58;;;;;;;1.87;1.10;;;;;;;;;;5054470;28;20480;-67
2023/10/16 09:26:28;;;;;;;4.80;1.77;;;;;;;;;;5070099;28;20438;-68
2023/10/16 09:28:56;;;;;;;2.37;1.50;;;;;;;;;;5057213;28;20466;-69
2023/10/16 09:31:24;;;;;;;3.53;1.80;;;;;;;;;;5060151;28;20808;-71
2023/10/16 09:33:52;;;;;;;2.00;1.10;;;;;;;;;;5058710;28;20481;-74
2023/10/16 09:36:20;;;;;;;2.90;1.43;;;;;;;;;;5057018;28;20979;-73
2023/10/16 09:38:52;;;;;;;3.30;2.07;;;;;;;;;;5056052;28;20457;-73
2023/10/16 09:44:09;;;;;;;2.13;1.37;;;;;;;;;;5054631;28;20467;-75
2023/10/16 09:46:52;;;;;;;1.90;1.20;;;;;;;;;;5062746;28;20437;-75
2023/10/16 09:49:22;;;;;;;2.47;1.23;;;;;;;;;;5059553;28;20499;-75
2023/10/16 09:51:49;;;;;;;2.40;1.37;;;;;;;;;;5068204;28;20446;-75
2023/10/16 09:54:21;;;;;;;2.40;1.70;;;;;;;;;;5071238;28;20488;-74
2023/10/16 09:56:49;;;;;;;5.57;2.10;;;;;;;;;;5065313;28;20579;-74
2023/10/16 09:59:26;;;;;;;2.77;1.77;;;;;;;;;;5055038;28;20977;-74
2023/10/16 10:01:55;;;;;;;3.00;2.00;;;;;;;;;;5050858;28;20471;-74
2023/10/16 10:04:24;;;;;;;3.87;1.67;;;;;;;;;;5056696;28;20466;-74
2023/10/16 10:06:54;;;;;;;6.77;2.67;;;;;;;;;;5061291;28;20540;-74
2023/10/16 10:09:40;;;;;;;3.27;1.90;;;;;;;;;;5057330;28;20443;-73
2023/10/16 10:12:13;;;;;;;5.27;1.80;;;;;;;;;;5054576;28;20542;-72
2023/10/16 10:14:48;;;;;;;3.43;1.67;;;;;;;;;;5063774;28;20481;-73
2023/10/16 10:17:19;;;;;;;4.77;2.63;;;;;;;;;;5069252;28;20477;-72
2023/10/16 10:19:54;;;;;;;2.00;1.17;;;;;;;;;;5054093;28;20486;-73
2023/10/16 10:22:26;;;;;;;2.50;1.80;;;;;;;;;;5055640;28;20452;-73
2023/10/16 10:25:14;;;;;;;2.70;1.70;;;;;;;;;;5057511;28;20481;-73
2023/10/16 10:27:42;;;;;;;4.27;1.63;;;;;;;;;;5066032;28;20477;-73
2023/10/16 10:30:14;;;;;;;2.67;1.80;;;;;;;;;;5057764;28;20469;-71
2023/10/16 10:32:41;;;;;;;2.37;1.50;;;;;;;;;;5056656;28;20443;-73
2023/10/16 10:35:28;;;;;;;3.13;1.60;;;;;;;;;;5062988;28;20493;-71
2023/10/16 10:38:07;;;;;;;3.73;1.50;;;;;;;;;;5062797;28;20447;-70
2023/10/16 10:40:36;;;;;;;2.57;1.40;;;;;;;;;;5057375;28;20990;-71
2023/10/16 10:43:04;;;;;;;4.03;1.43;;;;;;;;;;5053535;28;20458;-71
2023/10/16 10:45:35;;;;;;;2.50;1.57;;;;;;;;;;5049849;28;20566;-71
2023/10/16 10:48:09;;;;;;;1.50;0.90;;;;;;;;;;5052826;28;20445;-71
2023/10/16 10:50:38;;;;;;;2.03;1.20;;;;;;;;;;5049492;28;20442;-71
2023/10/16 10:53:13;;;;;;;3.03;1.60;;;;;;;;;;5060663;28;20541;-73
2023/10/16 10:55:54;;;;;;;4.60;1.50;;;;;;;;;;5056833;28;20485;-71
2023/10/16 10:58:23;;;;;;;1.67;1.10;;;;;;;;;;5061020;28;20549;-71
2023/10/16 11:01:00;;;;;;;2.57;1.47;;;;;;;;;;5063249;28;20510;-72
2023/10/16 11:03:33;;;;;;;5.17;1.40;;;;;;;;;;5052979;28;20952;-71
2023/10/16 11:06:00;;;;;;;1.97;1.30;;;;;;;;;;5051272;28;20438;-71
2023/10/16 11:08:33;;;;;;;1.83;1.07;;;;;;;;;;5060681;28;20453;-71
2023/10/16 11:11:03;;;;;;;2.27;1.53;;;;;;;;;;5056063;28;20442;-72
2023/10/16 11:13:30;;;;;;;2.80;1.10;;;;;;;;;;5058329;28;20454;-71
2023/10/16 11:16:00;;;;;;;4.70;1.03;;;;;;;;;;5043978;28;20826;-72
2023/10/16 11:18:28;;;;;;;3.27;1.03;;;;;;;;;;5061045;28;20454;-70
2023/10/16 11:20:59;;;;;;;2.90;1.03;;;;;;;;;;5053601;28;20446;-72
2023/10/16 11:23:31;;;;;;;2.17;0.70;;;;;;;;;;5054987;28;20464;-70
2023/10/16 11:25:58;;;;;;;2.33;1.43;;;;;;;;;;5052757;28;20456;-71
2023/10/16 11:28:31;;;;;;;2.53;1.17;;;;;;;;;;5055672;28;20457;-74
2023/10/16 11:30:59;;;;;;;3.77;1.70;;;;;;;;;;5056148;28;20478;-74
2023/10/16 11:33:27;;;;;;;4.37;2.10;;;;;;;;;;5052151;28;20447;-74
2023/10/16 11:36:02;;;;;;;1.73;1.00;;;;;;;;;;5056846;28;20505;-74
2023/10/16 11:38:29;;;;;;;4.20;1.30;;;;;;;;;;5059517;28;20446;-74
2023/10/16 11:40:57;;;;;;;1.90;1.10;;;;;;;;;;5056654;28;20442;-76
2023/10/16 11:43:25;;;;;;;2.60;1.27;;;;;;;;;;5065076;28;20451;-74
2023/10/16 11:46:05;;;;;;;2.30;1.40;;;;;;;;;;5057235;28;20450;-75
2023/10/16 11:48:39;;;;;;;1.97;1.20;;;;;;;;;;5056468;28;20456;-74
2023/10/16 11:51:08;;;;;;;3.30;1.10;;;;;;;;;;5059627;28;20462;-74
2023/10/16 11:53:37;;;;;;;2.63;1.00;;;;;;;;;;5053048;28;20853;-74
2023/10/16 11:56:08;;;;;;;2.43;1.37;;;;;;;;;;5052313;28;20851;-74
2023/10/16 11:58:35;;;;;;;3.53;1.30;;;;;;;;;;5053648;28;20464;-73
2023/10/16 12:01:10;;;;;;;1.40;0.90;;;;;;;;;;5055385;28;20469;-73
2023/10/16 12:03:38;;;;;;;1.63;0.83;;;;;;;;;;5064869;28;20441;-75
2023/10/16 12:06:08;;;;;;;1.60;1.00;;;;;;;;;;5065204;28;20449;-74
2023/10/16 12:08:36;;;;;;;1.57;1.00;;;;;;;;;;5058192;28;20482;-74
2023/10/16 12:11:04;;;;;;;3.30;1.10;;;;;;;;;;5060409;28;20504;-73
2023/10/16 12:13:31;;;;;;;4.00;2.23;;;;;;;;;;5064094;28;20449;-73
2023/10/16 12:15:59;;;;;;;3.40;1.03;;;;;;;;;;5061148;28;20485;-73
2023/10/16 12:18:29;;;;;;;2.37;1.00;;;;;;;;;;5058600;28;20442;-73
2023/10/16 12:21:04;;;;;;;2.30;1.00;;;;;;;;;;5062428;28;20461;-70
2023/10/16 12:23:32;;;;;;;1.93;0.90;;;;;;;;;;5065953;28;20456;-69
2023/10/16 12:25:59;;;;;;;1.90;1.30;;;;;;;;;;5051770;28;20532;-71
2023/10/16 12:28:27;;;;;;;1.70;1.43;;;;;;;;;;5062129;28;20900;-71
2023/10/16 12:30:57;;;;;;;2.23;1.17;;;;;;;;;;5060109;28;20476;-72
2023/10/16 12:33:25;;;;;;;2.00;0.60;;;;;;;;;;5062516;28;20554;-73
2023/10/16 12:35:54;;;;;;;1.60;1.00;;;;;;;;;;5063364;28;21003;-70
2023/10/16 12:38:23;;;;;;;3.63;1.00;;;;;;;;;;5062047;28;20561;-70
2023/10/16 12:40:53;;;;;;;1.80;0.90;;;;;;;;;;5063707;28;20457;-70
2023/10/16 12:43:20;;;;;;;1.80;1.13;;;;;;;;;;5058882;28;20457;-70
2023/10/16 12:45:49;;;;;;;2.80;1.27;;;;;;;;;;5054803;28;20485;-69
2023/10/16 12:48:17;;;;;;;1.90;1.20;;;;;;;;;;5061779;28;20545;-69
2023/10/16 12:50:47;;;;;;;2.47;1.00;;;;;;;;;;5058415;28;20450;-71
2023/10/16 12:53:16;;;;;;;1.80;0.93;;;;;;;;;;5061044;28;20496;-69
2023/10/16 12:55:49;;;;;;;3.07;1.40;;;;;;;;;;5059885;28;20508;-71
2023/10/16 12:58:18;;;;;;;2.67;1.00;;;;;;;;;;5059459;28;20964;-71
2023/10/16 13:00:48;;;;;;;1.70;1.20;;;;;;;;;;5058982;28;20865;-70
2023/10/16 13:03:19;;;;;;;2.47;1.17;;;;;;;;;;5051076;28;20569;-64
2023/10/16 13:05:46;;;;;;;1.83;0.90;;;;;;;;;;5055296;28;20465;-64
2023/10/16 13:08:13;;;;;;;2.50;1.30;;;;;;;;;;5054822;28;20438;-64
2023/10/16 13:10:42;;;;;;;2.50;1.30;;;;;;;;;;5062704;28;20853;-67
2023/10/16 13:13:09;;;;;;;1.90;0.80;;;;;;;;;;5059540;28;20465;-64
2023/10/16 13:15:36;;;;;;;2.00;1.00;;;;;;;;;;5060878;28;20486;-65
2023/10/16 13:18:11;;;;;;;1.90;1.27;;;;;;;;;;5068179;28;20872;-64
2023/10/16 13:20:38;;;;;;;2.33;1.00;;;;;;;;;;5059933;28;20463;-65
2023/10/16 13:23:06;;;;;;;1.70;1.07;;;;;;;;;;5057991;28;20470;-64
2023/10/16 13:25:34;;;;;;;3.53;1.13;;;;;;;;;;5060383;28;20469;-64
2023/10/16 13:28:04;;;;;;;1.60;0.80;;;;;;;;;;5040030;28;20504;-64
2023/10/16 13:30:32;;;;;;;1.80;0.80;;;;;;;;;;5061121;28;20461;-64
2023/10/16 13:33:06;;;;;;;1.60;0.70;;;;;;;;;;5058268;28;20450;-64
2023/10/16 13:35:38;;;;;;;1.40;0.70;;;;;;;;;;5065898;28;20484;-64
2023/10/16 13:38:07;;;;;;;2.50;1.40;;;;;;;;;;5054805;28;20477;-64
2023/10/16 13:40:35;;;;;;;2.00;1.00;;;;;;;;;;5055818;28;20442;-64
2023/10/16 13:43:10;;;;;;;2.77;1.07;;;;;;;;;;5062523;28;20458;-65
2023/10/16 13:45:37;;;;;;;2.70;1.27;;;;;;;;;;5068020;28;20468;-64
2023/10/16 13:48:08;;;;;;;4.40;1.10;;;;;;;;;;5062973;28;20865;-64
2023/10/16 13:50:35;;;;;;;3.83;1.43;;;;;;;;;;5058337;28;20914;-65
2023/10/16 13:53:04;;;;;;;2.10;1.00;;;;;;;;;;5070260;28;20456;-64
2023/10/16 13:55:31;;;;;;;2.20;1.30;;;;;;;;;;5049933;28;20478;-64
2023/10/16 13:57:58;;;;;;;3.53;1.37;;;;;;;;;;5053144;28;20956;-65
2023/10/16 14:00:29;;;;;;;3.00;1.30;;;;;;;;;;5060280;28;20943;-64
2023/10/16 14:02:57;;;;;;;2.00;1.10;;;;;;;;;;5069711;28;20923;-64
2023/10/16 14:05:28;;;;;;;1.27;0.70;;;;;;;;;;5064784;28;20510;-64
2023/10/16 14:07:55;;;;;;;1.57;0.83;;;;;;;;;;5060168;28;20936;-65
2023/10/16 14:10:23;;;;;;;1.80;0.87;;;;;;;;;;5054693;28;20457;-64
2023/10/16 14:12:58;;;;;;;2.40;0.70;;;;;;;;;;5063001;28;20442;-65
2023/10/16 14:15:32;;;;;;;1.80;1.23;;;;;;;;;;5053293;28;20521;-64
2023/10/16 14:18:00;;;;;;;1.93;1.07;;;;;;;;;;5049153;28;20443;-64
2023/10/16 14:23:11;;;;;;;1.27;0.83;;;;;;;;;;5069167;28;20441;-64
2023/10/16 14:25:45;;;;;;;2.37;0.80;;;;;;;;;;5060230;28;20514;-64
2023/10/16 14:28:25;;;;;;;1.33;0.67;;;;;;;;;;5057772;28;20544;-63
2023/10/16 14:30:55;;;;;;;2.37;1.10;;;;;;;;;;5064936;28;20531;-65
2023/10/16 14:33:23;;;;;;;4.03;1.67;;;;;;;;;;5069725;28;20456;-65
2023/10/16 14:35:50;;;;;;;1.47;0.70;;;;;;;;;;5048794;28;20466;-66
2023/10/16 14:38:19;;;;;;;3.03;1.10;;;;;;;;;;5061435;28;20481;-66
2023/10/16 14:40:46;;;;;;;2.27;1.30;;;;;;;;;;5053242;28;20538;-64
2023/10/16 14:43:15;;;;;;;2.03;0.80;;;;;;;;;;5058166;28;20449;-65
2023/10/16 14:45:43;;;;;;;1.80;1.00;;;;;;;;;;5060608;28;20512;-66
2023/10/16 14:48:11;;;;;;;2.23;0.90;;;;;;;;;;5060276;28;20545;-66
2023/10/16 14:50:39;;;;;;;4.40;1.67;;;;;;;;;;5054165;28;20457;-64
2023/10/16 14:53:07;;;;;;;1.50;0.90;;;;;;;;;;5056178;28;20797;-65
2023/10/16 14:55:35;;;;;;;1.60;0.90;;;;;;;;;;5052953;28;20850;-66
2023/10/16 14:58:02;;;;;;;1.17;0.60;;;;;;;;;;5059530;28;20955;-65
2023/10/16 15:00:32;;;;;;;1.80;0.93;;;;;;;;;;5055458;28;20458;-66
2023/10/16 15:03:00;;;;;;;2.20;1.30;;;;;;;;;;5062211;28;20947;-66
2023/10/16 15:05:29;;;;;;;1.60;1.00;;;;;;;;;;5052641;28;20466;-66
2023/10/16 15:07:58;;;;;;;2.23;1.00;;;;;;;;;;5053818;28;20442;-65
2023/10/16 15:10:27;;;;;;;1.70;0.87;;;;;;;;;;5044135;28;20555;-65
2023/10/16 15:12:55;;;;;;;7.23;2.50;;;;;;;;;;5060065;28;20489;-66
2023/10/16 15:15:22;;;;;;;2.00;1.03;;;;;;;;;;5052358;28;20493;-66
2023/10/16 15:17:49;;;;;;;1.87;1.10;;;;;;;;;;5071750;28;20454;-66
2023/10/16 15:20:16;;;;;;;2.03;0.93;;;;;;;;;;5062654;28;20442;-65
2023/10/16 15:22:45;;;;;;;1.70;1.00;;;;;;;;;;5063528;28;20524;-65
2023/10/16 15:25:13;;;;;;;2.13;1.00;;;;;;;;;;5058346;28;20466;-65
2023/10/16 15:27:41;;;;;;;1.70;1.00;;;;;;;;;;5052712;28;21003;-65
2023/10/16 15:30:10;;;;;;;3.03;1.17;;;;;;;;;;5052467;28;20519;-65
2023/10/16 15:32:39;;;;;;;1.50;1.00;;;;;;;;;;5057175;28;20465;-65
2023/10/16 15:35:06;;;;;;;1.93;0.73;;;;;;;;;;5060341;28;20533;-65
2023/10/16 15:37:33;;;;;;;1.97;0.97;;;;;;;;;;5067071;28;20453;-65
2023/10/16 15:40:03;;;;;;;1.60;0.87;;;;;;;;;;5050507;28;20462;-65
2023/10/16 15:42:30;;;;;;;1.70;0.90;;;;;;;;;;5061183;28;20451;-65
2023/10/16 15:45:00;;;;;;;1.80;0.97;;;;;;;;;;5052628;28;20707;-65
2023/10/16 15:47:29;;;;;;;3.83;1.10;;;;;;;;;;5058677;28;20504;-66
2023/10/16 15:49:56;;;;;;;1.67;1.00;;;;;;;;;;5054185;28;20453;-65
2023/10/16 15:52:23;;;;;;;1.60;0.80;;;;;;;;;;5060504;28;20446;-65
2023/10/16 15:54:52;;;;;;;2.27;0.87;;;;;;;;;;5061312;28;20481;-68
2023/10/16 15:57:22;;;;;;;2.83;1.10;;;;;;;;;;5061290;28;20995;-68
2023/10/16 15:59:51;;;;;;;2.47;1.30;;;;;;;;;;5057019;28;20489;-68
2023/10/16 16:02:18;;;;;;;1.90;1.20;;;;;;;;;;5059504;28;20450;-68
2023/10/16 16:04:47;;;;;;;1.87;0.80;;;;;;;;;;5055703;28;20510;-69
2023/10/16 16:07:14;;;;;;;1.80;0.83;;;;;;;;;;5055046;28;21002;-67
2023/10/16 16:09:41;;;;;;;1.40;0.90;;;;;;;;;;5061561;28;20449;-68
2023/10/16 16:12:09;;;;;;;1.70;0.80;;;;;;;;;;5053809;28;20458;-68
2023/10/16 16:14:42;;;;;;;1.20;0.80;;;;;;;;;;5056015;28;20480;-67
2023/10/16 16:17:10;;;;;;;2.10;0.90;;;;;;;;;;5056202;28;20470;-67
2023/10/16 16:19:39;;;;;;;1.83;0.90;;;;;;;;;;5053899;28;20909;-67
2023/10/16 16:22:10;;;;;;;1.47;0.77;;;;;;;;;;5057949;28;20454;-67
2023/10/16 16:24:37;;;;;;;2.33;0.93;;;;;;;;;;5049500;28;20474;-67
2023/10/16 16:27:07;;;;;;;3.10;1.07;;;;;;;;;;5061022;28;20457;-67
2023/10/16 16:29:34;;;;;;;2.70;1.53;;;;;;;;;;5061013;28;20496;-68
2023/10/16 16:32:03;;;;;;;3.40;0.90;;;;;;;;;;5053805;28;20461;-67